Terminal Aerodrome Forecast
Issued by NWS

Home | Current Version | Previous Version | Text Only | Print | Product List | Glossary On
Versions: 1 2 3 4 5 6 7 8 9 10 11 12 13 14 15 16 17 18
720
FTUS46 KSGX 222116 AAA
TAFONT
TAF AMD
KONT 222116Z 2221/2324 05012KT 3SM RA BR SCT005 BKN015 OVC040
      TEMPO 2222/2302 23020G30KT 1SM +SHRA BR BKN005
     FM230300 25015G25KT 4SM -RA BR SCT005 BKN015 OVC040
     FM230800 25015G25KT 4SM -RA BR SCT010 BKN030 OVC050
     FM231500 24007KT 4SM -RA BR SCT010 BKN030 OVC050
     FM232100 23006KT 4SM -RA BR VCTS SCT010 BKN030CB OVC050=

USA.gov is the U.S. government's official web portal to all federal, state and local government web resources and services.